createdAt,value
2022-12-01T00:01:40.358Z,0.07
2022-12-01T00:04:09.234Z,0.08
2022-12-01T00:06:38.199Z,0.07
2022-12-01T00:09:25.723Z,0.07
2022-12-01T00:11:54.325Z,0.06
2022-12-01T00:14:23.191Z,0.05
2022-12-01T00:16:53.022Z,0.04
2022-12-01T00:19:26.677Z,0.01
2022-12-01T00:21:55.306Z,-0.01
2022-12-01T00:24:25.006Z,-0.04
2022-12-01T00:26:53.613Z,-0.06
2022-12-01T00:29:22.486Z,-0.06
2022-12-01T00:31:51.650Z,-0.06
2022-12-01T00:34:25.284Z,-0.06
2022-12-01T00:36:54.084Z,-0.06
2022-12-01T00:39:22.905Z,-0.06
2022-12-01T00:41:51.745Z,-0.05
2022-12-01T00:44:20.444Z,-0.05
2022-12-01T00:46:49.225Z,-0.04
2022-12-01T00:49:18.107Z,-0.04
2022-12-01T00:51:47.166Z,-0.05
2022-12-01T00:54:16.008Z,-0.04
2022-12-01T00:56:44.772Z,-0.04
2022-12-01T00:59:14.706Z,-0.02
2022-12-01T01:01:43.335Z,-0.02
2022-12-01T01:04:12.271Z,-0.01
2022-12-01T01:06:43.925Z,-0.02
2022-12-01T01:09:14.431Z,-0.01
2022-12-01T01:11:43.221Z,-0.02
2022-12-01T01:14:11.930Z,-0.02
2022-12-01T01:16:40.561Z,-0.02
2022-12-01T01:19:09.306Z,-0.02
2022-12-01T01:21:39.105Z,-0.03
2022-12-01T01:24:07.589Z,-0.05
2022-12-01T01:26:37.626Z,-0.07
2022-12-01T01:29:08.068Z,-0.06
2022-12-01T01:31:37.018Z,-0.06
2022-12-01T01:34:06.645Z,-0.08
2022-12-01T01:36:35.326Z,-0.08
2022-12-01T01:39:05.045Z,-0.09
2022-12-01T01:41:33.705Z,-0.12
2022-12-01T01:44:06.284Z,-0.14
2022-12-01T01:46:35.905Z,-0.13
2022-12-01T01:49:10.570Z,-0.14
2022-12-01T01:51:45.835Z,-0.16
2022-12-01T01:54:45.259Z,-0.17
2022-12-01T01:57:18.079Z,-0.19
2022-12-01T01:59:53.085Z,-0.19
2022-12-01T02:02:21.939Z,-0.18
2022-12-01T02:04:56.087Z,-0.16
2022-12-01T02:07:26.050Z,-0.14
2022-12-01T02:09:55.224Z,-0.11
2022-12-01T02:12:29.107Z,-0.09
2022-12-01T02:15:09.475Z,-0.08
2022-12-01T02:17:55.046Z,-0.08
2022-12-01T02:20:27.005Z,-0.06
2022-12-01T02:23:13.921Z,-0.06
2022-12-01T02:25:57.893Z,-0.05
2022-12-01T02:29:06.504Z,-0.04
2022-12-01T02:32:09.057Z,-0.01
2022-12-01T02:34:57.625Z,0.01
2022-12-01T02:37:48.548Z,0.02
2022-12-01T02:40:33.405Z,0.02
2022-12-01T02:43:08.218Z,0.02
2022-12-01T02:45:48.466Z,0.03
2022-12-01T02:48:34.792Z,0.04
2022-12-01T02:51:12.269Z,0.05
2022-12-01T02:53:41.454Z,0.07
2022-12-01T02:56:16.328Z,0.10
2022-12-01T02:58:45.891Z,0.12
2022-12-01T03:01:38.277Z,0.14
2022-12-01T03:04:16.021Z,0.15
2022-12-01T03:07:19.766Z,0.17
2022-12-01T03:10:07.770Z,0.19
2022-12-01T03:12:39.022Z,0.20
2022-12-01T03:15:18.774Z,0.20
2022-12-01T03:17:54.161Z,0.20
2022-12-01T03:20:25.447Z,0.20
2022-12-01T03:23:05.099Z,0.21
2022-12-01T03:25:33.978Z,0.22
2022-12-01T03:30:56.188Z,0.24
2022-12-01T03:33:29.846Z,0.24
2022-12-01T03:36:02.964Z,0.24
2022-12-01T03:38:32.553Z,0.24
2022-12-01T03:41:06.242Z,0.23
2022-12-01T03:43:38.863Z,0.23
2022-12-01T03:46:10.455Z,0.23
2022-12-01T03:48:40.095Z,0.23
2022-12-01T03:51:23.605Z,0.24
2022-12-01T03:54:10.626Z,0.26
2022-12-01T03:56:53.944Z,0.28
2022-12-01T03:59:24.912Z,0.31
2022-12-01T04:01:53.622Z,0.32
2022-12-01T04:04:22.258Z,0.33
2022-12-01T04:06:52.093Z,0.33
2022-12-01T04:09:21.908Z,0.33
2022-12-01T04:12:09.825Z,0.33
2022-12-01T04:14:40.667Z,0.33
2022-12-01T04:17:09.365Z,0.34
2022-12-01T04:19:38.027Z,0.35
2022-12-01T04:22:06.725Z,0.35
2022-12-01T04:24:35.407Z,0.35
2022-12-01T04:27:04.505Z,0.36
2022-12-01T04:29:33.505Z,0.36
2022-12-01T04:32:02.305Z,0.34
2022-12-01T04:34:31.340Z,0.35
2022-12-01T04:37:00.087Z,0.36
2022-12-01T04:39:28.849Z,0.38
2022-12-01T04:41:57.530Z,0.41
2022-12-01T04:44:31.489Z,0.44
2022-12-01T04:47:04.552Z,0.47
2022-12-01T04:49:33.726Z,0.49
2022-12-01T04:52:02.529Z,0.50
2022-12-01T04:54:31.312Z,0.50
2022-12-01T04:56:59.886Z,0.52
2022-12-01T04:59:28.985Z,0.54
2022-12-01T05:01:57.764Z,0.57
2022-12-01T05:04:26.449Z,0.58
2022-12-01T05:06:55.963Z,0.59
2022-12-01T05:09:24.435Z,0.60
2022-12-01T05:11:52.983Z,0.61
2022-12-01T05:14:21.607Z,0.63
2022-12-01T05:16:50.232Z,0.63
2022-12-01T05:19:38.119Z,0.64
2022-12-01T05:22:06.701Z,0.65
2022-12-01T05:24:35.984Z,0.63
2022-12-01T05:27:05.000Z,0.63
2022-12-01T05:29:33.686Z,0.63
2022-12-01T05:32:03.475Z,0.63
2022-12-01T05:34:32.491Z,0.62
2022-12-01T05:37:01.174Z,0.62
2022-12-01T05:39:30.266Z,0.63
2022-12-01T05:41:59.283Z,0.62
2022-12-01T05:44:27.841Z,0.62
2022-12-01T05:46:56.452Z,0.63
2022-12-01T05:49:25.213Z,0.64
2022-12-01T05:51:55.245Z,0.63
2022-12-01T05:54:24.119Z,0.63
2022-12-01T05:56:52.813Z,0.63
2022-12-01T05:59:21.423Z,0.64
2022-12-01T06:01:50.168Z,0.64
2022-12-01T06:04:19.460Z,0.63
2022-12-01T06:06:48.388Z,0.62
2022-12-01T06:09:17.164Z,0.61
2022-12-01T06:11:48.053Z,0.61
2022-12-01T06:14:20.045Z,0.61
2022-12-01T06:16:48.875Z,0.61
2022-12-01T06:19:17.575Z,0.60
2022-12-01T06:21:46.212Z,0.61
2022-12-01T06:24:18.922Z,0.60
2022-12-01T06:26:51.256Z,0.62
2022-12-01T06:29:19.945Z,0.64
2022-12-01T06:31:48.693Z,0.66
2022-12-01T06:34:17.536Z,0.67
2022-12-01T06:36:47.146Z,0.68
2022-12-01T06:39:19.607Z,0.69
2022-12-01T06:41:48.504Z,0.71
2022-12-01T06:44:17.095Z,0.73
2022-12-01T06:46:45.865Z,0.75
2022-12-01T06:49:14.586Z,0.75
2022-12-01T06:51:43.456Z,0.75
2022-12-01T06:54:13.600Z,0.77
2022-12-01T06:56:43.626Z,0.78
2022-12-01T06:59:14.006Z,0.80
2022-12-01T07:01:43.198Z,0.82
2022-12-01T07:04:12.303Z,0.84
2022-12-01T07:06:41.205Z,0.88
2022-12-01T07:09:11.095Z,0.90
2022-12-01T07:11:40.712Z,0.93
2022-12-01T07:14:18.206Z,0.95
2022-12-01T07:16:50.741Z,0.98
2022-12-01T07:19:20.185Z,0.98
2022-12-01T07:21:48.653Z,1.00
2022-12-01T07:24:17.616Z,1.03
2022-12-01T07:26:47.608Z,1.05
2022-12-01T07:29:17.577Z,1.08
2022-12-01T07:31:46.942Z,1.11
2022-12-01T07:34:15.980Z,1.13
2022-12-01T07:36:44.789Z,1.16
2022-12-01T07:39:13.837Z,1.18
2022-12-01T07:41:42.551Z,1.22
2022-12-01T07:44:11.966Z,1.25
2022-12-01T07:46:40.999Z,1.29
2022-12-01T07:49:12.194Z,1.30
2022-12-01T07:51:41.995Z,1.33
2022-12-01T07:54:11.705Z,1.34
2022-12-01T07:56:41.004Z,1.37
2022-12-01T07:59:09.919Z,1.41
2022-12-01T08:01:43.026Z,1.44
2022-12-01T08:04:13.616Z,1.47
2022-12-01T08:06:42.301Z,1.51
2022-12-01T08:09:11.398Z,1.55
2022-12-01T08:11:40.184Z,1.60
2022-12-01T08:14:08.874Z,1.63
2022-12-01T08:16:37.458Z,1.66
2022-12-01T08:19:06.443Z,1.68
2022-12-01T08:21:37.910Z,1.70
2022-12-01T08:24:07.811Z,1.72
2022-12-01T08:26:36.605Z,1.74
2022-12-01T08:29:05.808Z,1.76
2022-12-01T08:31:38.188Z,1.78
2022-12-01T08:34:07.470Z,1.81
2022-12-01T08:36:38.009Z,1.83
2022-12-01T08:39:08.433Z,1.85
2022-12-01T08:41:37.103Z,1.88
2022-12-01T08:44:06.098Z,1.92
2022-12-01T08:46:36.066Z,1.95
2022-12-01T08:49:05.932Z,1.96
2022-12-01T08:51:34.618Z,1.99
2022-12-01T08:54:04.727Z,2.01
2022-12-01T08:56:39.106Z,2.02
2022-12-01T08:59:08.468Z,2.03
2022-12-01T09:01:58.999Z,2.03
2022-12-01T09:04:29.882Z,2.03
2022-12-01T09:06:58.648Z,2.03
2022-12-01T09:09:30.007Z,2.05
2022-12-01T09:11:58.603Z,2.06
2022-12-01T09:14:27.205Z,2.08
2022-12-01T09:16:56.280Z,2.10
2022-12-01T09:19:25.451Z,2.11
2022-12-01T09:21:54.484Z,2.14
2022-12-01T09:24:23.786Z,2.16
2022-12-01T09:26:56.465Z,2.18
2022-12-01T09:29:25.465Z,2.19
2022-12-01T09:31:58.295Z,2.22
2022-12-01T09:34:28.139Z,2.24
2022-12-01T09:36:58.818Z,2.27
2022-12-01T09:39:27.885Z,2.29
2022-12-01T09:42:09.064Z,2.30
2022-12-01T09:44:49.209Z,2.32
2022-12-01T09:47:24.373Z,2.34
2022-12-01T09:49:57.213Z,2.34
2022-12-01T09:52:29.366Z,2.34
2022-12-01T09:54:59.754Z,2.35
2022-12-01T09:57:34.653Z,2.36
2022-12-01T10:00:14.484Z,2.37
2022-12-01T10:03:21.290Z,2.38
2022-12-01T10:06:24.984Z,2.39
2022-12-01T10:08:44.496Z,2.43
2022-12-01T10:11:33.872Z,2.44
2022-12-01T10:14:04.645Z,2.44
2022-12-01T10:16:38.609Z,2.45
2022-12-01T10:19:18.399Z,2.46
2022-12-01T10:22:30.601Z,2.47
2022-12-01T10:25:24.656Z,2.48
2022-12-01T10:28:21.837Z,2.49
2022-12-01T10:30:52.965Z,2.49
2022-12-01T10:33:35.286Z,2.48
2022-12-01T10:36:04.234Z,2.49
2022-12-01T10:38:35.728Z,2.50
2022-12-01T10:41:07.044Z,2.51
2022-12-01T10:43:40.607Z,2.53
2022-12-01T10:46:44.704Z,2.54
2022-12-01T10:49:16.189Z,2.55
2022-12-01T10:51:52.508Z,2.58
2022-12-01T10:54:23.469Z,2.61
2022-12-01T10:56:56.691Z,2.63
2022-12-01T10:59:33.724Z,2.63
2022-12-01T11:02:06.793Z,2.64
2022-12-01T11:04:45.749Z,2.66
2022-12-01T11:07:27.997Z,2.68
2022-12-01T11:10:17.206Z,2.71
2022-12-01T11:12:53.836Z,2.73
2022-12-01T11:15:34.466Z,2.75
2022-12-01T11:18:05.591Z,2.76
2022-12-01T11:20:37.173Z,2.77
2022-12-01T11:23:21.384Z,2.77
2022-12-01T11:26:02.042Z,2.76
2022-12-01T11:28:32.544Z,2.77
2022-12-01T11:31:05.840Z,2.78
2022-12-01T11:33:53.292Z,2.80
2022-12-01T11:36:31.196Z,2.84
2022-12-01T11:39:01.573Z,2.84
2022-12-01T11:41:33.156Z,2.85
2022-12-01T11:44:06.281Z,2.86
2022-12-01T11:46:50.102Z,2.86
2022-12-01T11:49:23.605Z,2.87
2022-12-01T11:51:52.697Z,2.89
2022-12-01T11:54:27.249Z,2.88
2022-12-01T11:57:31.855Z,2.88
2022-12-01T11:59:44.783Z,2.88
2022-12-01T12:02:21.888Z,2.89
2022-12-01T12:05:14.795Z,2.90
2022-12-01T12:08:06.989Z,2.92
2022-12-01T12:10:48.272Z,2.93
2022-12-01T12:13:46.391Z,2.94
2022-12-01T12:16:35.561Z,2.95
2022-12-01T12:19:04.567Z,2.95
2022-12-01T12:21:52.704Z,2.94
2022-12-01T12:24:27.516Z,2.94
2022-12-01T12:27:14.438Z,2.92
2022-12-01T12:29:52.559Z,2.91
2022-12-01T12:32:40.368Z,2.90
2022-12-01T12:35:39.685Z,2.90
2022-12-01T12:38:23.314Z,2.89
2022-12-01T12:41:00.943Z,2.86
2022-12-01T12:43:36.973Z,2.84
2022-12-01T12:46:09.365Z,2.81
2022-12-01T12:48:50.848Z,2.79
2022-12-01T12:51:38.556Z,2.75
2022-12-01T12:54:35.802Z,2.72
2022-12-01T12:57:14.837Z,2.71
2022-12-01T12:59:53.892Z,2.70
2022-12-01T13:02:43.432Z,2.71
2022-12-01T13:05:32.005Z,2.71
2022-12-01T13:08:09.217Z,2.70
2022-12-01T13:10:46.978Z,2.67
2022-12-01T13:13:37.954Z,2.65
2022-12-01T13:16:17.995Z,2.65
2022-12-01T13:19:03.679Z,2.63
2022-12-01T13:21:39.550Z,2.62
2022-12-01T13:24:19.848Z,2.62
2022-12-01T13:27:06.617Z,2.61
2022-12-01T13:29:43.645Z,2.58
2022-12-01T13:32:30.039Z,2.56
2022-12-01T13:35:00.046Z,2.56
2022-12-01T13:37:32.319Z,2.54
2022-12-01T13:40:30.438Z,2.53
2022-12-01T13:45:52.494Z,2.49
2022-12-01T13:48:54.387Z,2.48
2022-12-01T13:51:25.265Z,2.47
2022-12-01T13:54:06.997Z,2.46
2022-12-01T13:56:40.793Z,2.46
2022-12-01T13:59:42.253Z,2.44
2022-12-01T14:02:20.675Z,2.41
2022-12-01T14:04:49.600Z,2.40
2022-12-01T14:07:38.403Z,2.38
2022-12-01T14:10:29.817Z,2.37
2022-12-01T14:13:03.492Z,2.36
2022-12-01T14:15:43.105Z,2.34
2022-12-01T14:18:36.721Z,2.33
2022-12-01T14:21:10.796Z,2.33
2022-12-01T14:24:00.588Z,2.33
2022-12-01T14:26:30.817Z,2.34
2022-12-01T14:29:02.697Z,2.34
2022-12-01T14:31:34.455Z,2.34
2022-12-01T14:34:19.049Z,2.33
2022-12-01T14:37:12.920Z,2.31
2022-12-01T14:39:45.095Z,2.28
2022-12-01T14:42:55.112Z,2.25
2022-12-01T14:45:40.074Z,2.23
2022-12-01T14:48:14.092Z,2.23
2022-12-01T14:50:46.760Z,2.22
2022-12-01T14:53:21.596Z,2.22
2022-12-01T14:55:56.877Z,2.21
2022-12-01T14:58:32.461Z,2.18
2022-12-01T15:01:08.716Z,2.18
2022-12-01T15:03:43.182Z,2.18
2022-12-01T15:06:17.892Z,2.19
2022-12-01T15:09:04.179Z,2.18
2022-12-01T15:11:39.439Z,2.15
2022-12-01T15:14:28.182Z,2.15
2022-12-01T15:16:57.866Z,2.16
2022-12-01T15:19:34.894Z,2.16
2022-12-01T15:22:30.065Z,2.17
2022-12-01T15:25:34.028Z,2.16
2022-12-01T15:28:12.205Z,2.15
2022-12-01T15:30:42.651Z,2.15
2022-12-01T15:33:24.106Z,2.14
2022-12-01T15:35:56.389Z,2.15
2022-12-01T15:38:31.883Z,2.15
2022-12-01T15:44:05.853Z,2.15
2022-12-01T15:46:35.072Z,2.14
2022-12-01T15:49:16.740Z,2.15
2022-12-01T15:51:46.816Z,2.16
2022-12-01T15:54:24.883Z,2.15
2022-12-01T15:56:59.154Z,2.14
2022-12-01T15:59:45.744Z,2.13
2022-12-01T16:02:26.996Z,2.13
2022-12-01T16:05:08.148Z,2.14
2022-12-01T16:08:12.058Z,2.14
2022-12-01T16:10:34.985Z,2.14
2022-12-01T16:13:38.699Z,2.17
2022-12-01T16:16:39.863Z,2.18
2022-12-01T16:19:08.858Z,2.20
2022-12-01T16:21:51.395Z,2.20
2022-12-01T16:24:48.778Z,2.21
2022-12-01T16:27:27.541Z,2.22
2022-12-01T16:30:07.408Z,2.21
2022-12-01T16:32:41.468Z,2.23
2022-12-01T16:35:32.308Z,2.23
2022-12-01T16:38:11.062Z,2.24
2022-12-01T16:40:43.062Z,2.25
2022-12-01T16:43:17.198Z,2.25
2022-12-01T16:45:51.198Z,2.25
2022-12-01T16:48:21.493Z,2.25
2022-12-01T16:50:54.155Z,2.25
2022-12-01T16:53:23.030Z,2.24
2022-12-01T16:55:55.759Z,2.23
2022-12-01T16:58:25.109Z,2.23
2022-12-01T17:00:54.876Z,2.23
2022-12-01T17:03:27.915Z,2.22
2022-12-01T17:06:00.946Z,2.23
2022-12-01T17:08:29.802Z,2.21
2022-12-01T17:10:59.608Z,2.22
2022-12-01T17:13:29.509Z,2.23
2022-12-01T17:15:59.246Z,2.23
2022-12-01T17:18:28.732Z,2.21
2022-12-01T17:21:16.551Z,2.21
2022-12-01T17:23:45.426Z,2.21
2022-12-01T17:26:16.693Z,2.21
2022-12-01T17:28:46.438Z,2.21
2022-12-01T17:31:17.236Z,2.19
2022-12-01T17:33:47.144Z,2.18
2022-12-01T17:36:16.649Z,2.18
2022-12-01T17:38:47.667Z,2.17
2022-12-01T17:41:22.539Z,2.17
2022-12-01T17:43:52.329Z,2.17
2022-12-01T17:46:22.529Z,2.15
2022-12-01T17:48:51.446Z,2.15
2022-12-01T17:51:21.037Z,2.14
2022-12-01T17:53:50.127Z,2.14
2022-12-01T17:56:18.810Z,2.14
2022-12-01T17:58:50.771Z,2.13
2022-12-01T18:01:26.802Z,2.13
2022-12-01T18:04:00.350Z,2.12
2022-12-01T18:06:29.258Z,2.11
2022-12-01T18:09:00.474Z,2.10
2022-12-01T18:11:32.970Z,2.09
2022-12-01T18:14:02.970Z,2.08
2022-12-01T18:16:32.742Z,2.06
2022-12-01T18:19:04.749Z,2.06
2022-12-01T18:21:34.147Z,2.06
2022-12-01T18:24:05.899Z,2.06
2022-12-01T18:26:37.179Z,2.07
2022-12-01T18:29:14.750Z,2.09
2022-12-01T18:31:46.890Z,2.09
2022-12-01T18:34:17.034Z,2.09
2022-12-01T18:36:48.211Z,2.09
2022-12-01T18:39:17.791Z,2.08
2022-12-01T18:41:47.593Z,2.08
2022-12-01T18:44:17.501Z,2.08
2022-12-01T18:46:47.293Z,2.09
2022-12-01T18:49:16.240Z,2.09
2022-12-01T18:51:45.660Z,2.07
2022-12-01T18:54:16.901Z,2.07
2022-12-01T18:56:48.092Z,2.07
2022-12-01T18:59:19.345Z,2.08
2022-12-01T19:01:49.485Z,2.08
2022-12-01T19:04:19.994Z,2.09
2022-12-01T19:06:50.930Z,2.11
2022-12-01T19:09:20.939Z,2.10
2022-12-01T19:12:00.094Z,2.10
2022-12-01T19:14:30.385Z,2.10
2022-12-01T19:17:01.547Z,2.10
2022-12-01T19:19:37.219Z,2.10
2022-12-01T19:22:09.059Z,2.10
2022-12-01T19:24:39.797Z,2.08
2022-12-01T19:27:12.420Z,2.08
2022-12-01T19:29:42.569Z,2.07
2022-12-01T19:32:13.623Z,2.07
2022-12-01T19:34:44.019Z,2.06
2022-12-01T19:37:14.136Z,2.04
2022-12-01T19:39:44.090Z,2.04
2022-12-01T19:42:13.480Z,2.03
2022-12-01T19:44:43.089Z,2.03
2022-12-01T19:47:16.532Z,2.02
2022-12-01T19:49:49.652Z,2.01
2022-12-01T19:52:20.626Z,2.00
2022-12-01T19:54:57.690Z,2.00
2022-12-01T19:57:29.259Z,2.00
2022-12-01T19:59:58.172Z,2.00
2022-12-01T20:02:29.459Z,2.00
2022-12-01T20:04:59.513Z,1.99
2022-12-01T20:07:29.163Z,1.99
2022-12-01T20:09:59.216Z,1.99
2022-12-01T20:12:29.580Z,1.98
2022-12-01T20:14:59.792Z,1.98
2022-12-01T20:17:31.130Z,1.97
2022-12-01T20:20:01.367Z,1.96
2022-12-01T20:22:36.433Z,1.95
2022-12-01T20:25:06.776Z,1.93
2022-12-01T20:27:38.862Z,1.93
2022-12-01T20:30:09.953Z,1.92
2022-12-01T20:32:42.746Z,1.92
2022-12-01T20:35:14.776Z,1.91
2022-12-01T20:37:47.162Z,1.90
2022-12-01T20:40:17.871Z,1.90
2022-12-01T20:42:48.358Z,1.89
2022-12-01T20:45:28.108Z,1.90
2022-12-01T20:47:58.043Z,1.89
2022-12-01T20:50:31.793Z,1.88
2022-12-01T20:53:02.393Z,1.87
2022-12-01T20:55:31.910Z,1.86
2022-12-01T20:58:03.431Z,1.86
2022-12-01T21:00:33.344Z,1.84
2022-12-01T21:03:03.376Z,1.83
2022-12-01T21:05:36.971Z,1.83
2022-12-01T21:08:08.726Z,1.83
2022-12-01T21:10:39.139Z,1.82
2022-12-01T21:13:39.594Z,1.83
2022-12-01T21:16:14.407Z,1.81
2022-12-01T21:18:55.671Z,1.80
2022-12-01T21:21:30.314Z,1.79
2022-12-01T21:24:06.891Z,1.80
2022-12-01T21:26:39.171Z,1.78
2022-12-01T21:29:26.480Z,1.77
2022-12-01T21:32:01.739Z,1.76
2022-12-01T21:34:30.403Z,1.75
2022-12-01T21:37:02.463Z,1.74
2022-12-01T21:39:31.250Z,1.72
2022-12-01T21:42:09.571Z,1.71
2022-12-01T21:44:39.825Z,1.70
2022-12-01T21:47:26.434Z,1.69
2022-12-01T21:49:57.673Z,1.67
2022-12-01T21:52:33.587Z,1.67
2022-12-01T21:55:29.736Z,1.65
2022-12-01T21:57:58.296Z,1.64
2022-12-01T22:00:37.408Z,1.64
2022-12-01T22:03:09.082Z,1.61
2022-12-01T22:05:46.043Z,1.60
2022-12-01T22:08:30.724Z,1.60
2022-12-01T22:11:12.238Z,1.60
2022-12-01T22:13:45.732Z,1.59
2022-12-01T22:16:40.827Z,1.59
2022-12-01T22:19:15.227Z,1.58
2022-12-01T22:21:49.664Z,1.59
2022-12-01T22:24:21.329Z,1.60
2022-12-01T22:27:30.059Z,1.61
2022-12-01T22:30:08.344Z,1.61
2022-12-01T22:33:04.170Z,1.58
2022-12-01T22:35:42.789Z,1.55
2022-12-01T22:38:32.972Z,1.55
2022-12-01T22:41:03.192Z,1.54
2022-12-01T22:43:45.721Z,1.53
2022-12-01T22:46:26.215Z,1.52
2022-12-01T22:49:00.595Z,1.51
2022-12-01T22:51:50.097Z,1.49
2022-12-01T22:54:31.073Z,1.48
2022-12-01T22:57:08.853Z,1.47
2022-12-01T22:59:42.750Z,1.45
2022-12-01T23:02:35.131Z,1.43
2022-12-01T23:05:27.252Z,1.40
2022-12-01T23:07:56.725Z,1.39
2022-12-01T23:10:29.611Z,1.38
2022-12-01T23:13:01.142Z,1.36
2022-12-01T23:15:37.513Z,1.36
2022-12-01T23:18:16.349Z,1.35
2022-12-01T23:20:47.707Z,1.34
2022-12-01T23:23:18.971Z,1.33
2022-12-01T23:25:49.619Z,1.33
2022-12-01T23:28:18.891Z,1.34
2022-12-01T23:30:50.731Z,1.33
2022-12-01T23:33:21.897Z,1.31
2022-12-01T23:36:01.734Z,1.31
2022-12-01T23:38:38.817Z,1.32
2022-12-01T23:41:18.145Z,1.32
2022-12-01T23:43:49.684Z,1.34
2022-12-01T23:46:21.457Z,1.34
2022-12-01T23:49:07.474Z,1.35
2022-12-01T23:51:38.746Z,1.37
2022-12-01T23:54:28.371Z,1.37
2022-12-01T23:56:59.259Z,1.36
2022-12-01T23:59:28.187Z,1.36
